Time;durP1;ratioP1;P1;durP2;ratioP2;P2;SDS_P1;SDS_P2;PMS_P1;PMS_P2;Temp;Humidity;BMP_temperature;BMP_pressure;BME280_temperature;BME280_humidity;BME280_pressure;Samples;Min_cycle;Max_cycle;Signal;HPM_P1;HPM_P2
2022/01/04 00:00:50;;;;;;;;;;;;;;;;;;5093454;28;20003;-72
2022/01/04 00:03:16;;;;;;;;;;;;;;;;;;5092613;28;19962;-71
2022/01/04 00:05:41;;;;;;;;;;;;;;;;;;5093462;28;19963;-71
2022/01/04 00:08:10;;;;;;;;;;;;;;;;;;5093398;28;20274;-72
2022/01/04 00:10:36;;;;;;;;;;;;;;;;;;5096335;28;20266;-72
2022/01/04 00:15:45;;;;;;;;;;;;;;;;;;5097146;28;19924;-71
2022/01/04 00:18:11;;;;;;;;;;;;;;;;;;5097003;28;19922;-71
2022/01/04 00:20:36;;;;;;;;;;;;;;;;;;5096983;28;19916;-72
2022/01/04 00:23:02;;;;;;;;;;;;;;;;;;5096780;28;19970;-72
2022/01/04 00:25:27;;;;;;;;;;;;;;;;;;5097021;28;20599;-72
2022/01/04 00:27:53;;;;;;;;;;;;;;;;;;5096676;28;19981;-72
2022/01/04 00:30:18;;;;;;;;;;;;;;;;;;5096353;28;19916;-73
2022/01/04 00:32:43;;;;;;;;;;;;;;;;;;5096779;28;19922;-72
2022/01/04 00:35:09;;;;;;;;;;;;;;;;;;5094730;28;19923;-72
2022/01/04 00:37:34;;;;;;;;;;;;;;;;;;5095305;28;20377;-72
2022/01/04 00:40:00;;;;;;;;;;;;;;;;;;5096780;28;20374;-72
2022/01/04 00:42:25;;;;;;;;;;;;;;;;;;5096687;28;19916;-72
2022/01/04 00:44:50;;;;;;;;;;;;;;;;;;5096611;28;19922;-72
2022/01/04 00:47:16;;;;;;;;;;;;;;;;;;5096269;28;20010;-72
2022/01/04 00:49:42;;;;;;;;;;;;;;;;;;5096494;28;20254;-72
2022/01/04 00:52:12;;;;;;;;;;;;;;;;;;5096392;28;20337;-72
2022/01/04 00:54:37;;;;;;;;;;;;;;;;;;5096400;28;19916;-72
2022/01/04 00:57:03;;;;;;;;;;;;;;;;;;5096366;28;19926;-71
2022/01/04 00:59:28;;;;;;;;;;;;;;;;;;5095754;28;19924;-71
2022/01/04 01:01:53;;;;;;;;;;;;;;;;;;5096173;28;19921;-71
2022/01/04 01:04:19;;;;;;;;;;;;;;;;;;5095807;28;19920;-72
2022/01/04 01:06:45;;;;;;;;;;;;;;;;;;5095762;28;19916;-72
2022/01/04 01:09:10;;;;;;;;;;;;;;;;;;5095692;28;20431;-72
2022/01/04 01:11:35;;;;;;;;;;;;;;;;;;5095182;28;19916;-72
2022/01/04 01:14:01;;;;;;;;;;;;;;;;;;5096061;28;19916;-72
2022/01/04 01:16:26;;;;;;;;;;;;;;;;;;5095925;28;19916;-72
2022/01/04 01:18:51;;;;;;;;;;;;;;;;;;5096065;28;19916;-71
2022/01/04 01:21:16;;;;;;;;;;;;;;;;;;5094986;28;19923;-72
2022/01/04 01:23:42;;;;;;;;;;;;;;;;;;5095757;28;19927;-72
2022/01/04 01:26:09;;;;;;;;;;;;;;;;;;5095833;28;20382;-72
2022/01/04 01:28:35;;;;;;;;;;;;;;;;;;5094538;28;19997;-72
2022/01/04 01:31:00;;;;;;;;;;;;;;;;;;5094528;28;20345;-71
2022/01/04 01:33:27;;;;;;;;;;;;;;;;;;5095613;28;19916;-71
2022/01/04 01:35:53;;;;;;;;;;;;;;;;;;5094520;28;20392;-72
2022/01/04 01:38:19;;;;;;;;;;;;;;;;;;5095373;28;19916;-72
2022/01/04 01:40:45;;;;;;;;;;;;;;;;;;5095496;28;19916;-72
2022/01/04 01:43:10;;;;;;;;;;;;;;;;;;5095263;28;19946;-72
2022/01/04 01:45:36;;;;;;;;;;;;;;;;;;5095479;28;19923;-71
2022/01/04 01:48:01;;;;;;;;;;;;;;;;;;5095242;28;19965;-71
2022/01/04 01:50:27;;;;;;;;;;;;;;;;;;5095223;28;19916;-71
2022/01/04 01:52:53;;;;;;;;;;;;;;;;;;5094967;28;19924;-71
2022/01/04 01:55:19;;;;;;;;;;;;;;;;;;5095124;28;20281;-71
2022/01/04 01:57:45;;;;;;;;;;;;;;;;;;5095146;28;19974;-71
2022/01/04 02:00:12;;;;;;;;;;;;;;;;;;5094420;28;20389;-71
2022/01/04 02:02:37;;;;;;;;;;;;;;;;;;5095122;28;20011;-71
2022/01/04 02:05:03;;;;;;;;;;;;;;;;;;5094824;28;20019;-72
2022/01/04 02:07:29;;;;;;;;;;;;;;;;;;5094480;28;20377;-71
2022/01/04 02:10:04;;;;;;;;;;;;;;;;;;5094993;28;19916;-71
2022/01/04 02:12:31;;;;;;;;;;;;;;;;;;5094344;28;19920;-71
2022/01/04 02:14:57;;;;;;;;;;;;;;;;;;5094696;28;20456;-71
2022/01/04 02:17:22;;;;;;;;;;;;;;;;;;5094657;28;19958;-72
2022/01/04 02:19:47;;;;;;;;;;;;;;;;;;5094681;28;19977;-72
2022/01/04 02:22:13;;;;;;;;;;;;;;;;;;5094723;28;19920;-71
2022/01/04 02:24:38;;;;;;;;;;;;;;;;;;5094656;28;20017;-72
2022/01/04 02:27:03;;;;;;;;;;;;;;;;;;5093895;28;19920;-72
2022/01/04 02:29:29;;;;;;;;;;;;;;;;;;5094369;28;19920;-72
2022/01/04 02:31:54;;;;;;;;;;;;;;;;;;5094577;28;19923;-72
2022/01/04 02:34:20;;;;;;;;;;;;;;;;;;5093652;28;20283;-72
2022/01/04 02:36:45;;;;;;;;;;;;;;;;;;5094429;28;19969;-71
2022/01/04 02:39:11;;;;;;;;;;;;;;;;;;5094411;28;19916;-71
2022/01/04 02:41:36;;;;;;;;;;;;;;;;;;5094348;28;19916;-71
2022/01/04 02:44:02;;;;;;;;;;;;;;;;;;5094338;28;19920;-72
2022/01/04 02:46:27;;;;;;;;;;;;;;;;;;5093992;28;19928;-73
2022/01/04 02:48:52;;;;;;;;;;;;;;;;;;5094276;28;19916;-72
2022/01/04 02:51:18;;;;;;;;;;;;;;;;;;5094036;28;20007;-72
2022/01/04 02:53:44;;;;;;;;;;;;;;;;;;5094247;28;19927;-72
2022/01/04 02:56:10;;;;;;;;;;;;;;;;;;5094025;28;19916;-71
2022/01/04 02:58:35;;;;;;;;;;;;;;;;;;5094144;28;20395;-72
2022/01/04 03:01:01;;;;;;;;;;;;;;;;;;5094208;28;19982;-72
2022/01/04 03:03:27;;;;;;;;;;;;;;;;;;5093998;28;19924;-72
2022/01/04 03:05:55;;;;;;;;;;;;;;;;;;5093319;28;19939;-72
2022/01/04 03:08:20;;;;;;;;;;;;;;;;;;5094047;28;19916;-72
2022/01/04 03:10:45;;;;;;;;;;;;;;;;;;5093916;28;19916;-72
2022/01/04 03:13:11;;;;;;;;;;;;;;;;;;5094011;28;19916;-72
2022/01/04 03:15:36;;;;;;;;;;;;;;;;;;5093839;28;19920;-72
2022/01/04 03:18:01;;;;;;;;;;;;;;;;;;5093803;28;19924;-72
2022/01/04 03:20:27;;;;;;;;;;;;;;;;;;5093808;28;19916;-72
2022/01/04 03:22:52;;;;;;;;;;;;;;;;;;5093763;28;19920;-72
2022/01/04 03:25:17;;;;;;;;;;;;;;;;;;5093667;28;19923;-72
2022/01/04 03:27:42;;;;;;;;;;;;;;;;;;5092751;28;19916;-72
2022/01/04 03:30:08;;;;;;;;;;;;;;;;;;5093688;28;20390;-72
2022/01/04 03:32:33;;;;;;;;;;;;;;;;;;5093732;28;19920;-73
2022/01/04 03:34:59;;;;;;;;;;;;;;;;;;5091710;28;19916;-72
2022/01/04 03:37:24;;;;;;;;;;;;;;;;;;5093723;28;19916;-72
2022/01/04 03:39:49;;;;;;;;;;;;;;;;;;5093679;28;19967;-72
2022/01/04 03:42:15;;;;;;;;;;;;;;;;;;5093673;28;19916;-72
2022/01/04 03:44:40;;;;;;;;;;;;;;;;;;5096281;28;19920;-72
2022/01/04 03:47:06;;;;;;;;;;;;;;;;;;5097439;28;19920;-73
2022/01/04 03:49:31;;;;;;;;;;;;;;;;;;5097687;28;19916;-72
2022/01/04 03:51:57;;;;;;;;;;;;;;;;;;5096335;28;19916;-72
2022/01/04 03:54:22;;;;;;;;;;;;;;;;;;5097635;28;19970;-71
2022/01/04 03:56:48;;;;;;;;;;;;;;;;;;5096198;28;19956;-72
2022/01/04 03:59:14;;;;;;;;;;;;;;;;;;5097521;28;20019;-71
2022/01/04 04:01:42;;;;;;;;;;;;;;;;;;5097318;28;19922;-72
2022/01/04 04:04:08;;;;;;;;;;;;;;;;;;5095972;28;20018;-72
2022/01/04 04:06:34;;;;;;;;;;;;;;;;;;5096228;28;19947;-71
2022/01/04 04:08:59;;;;;;;;;;;;;;;;;;5096011;28;19916;-71
2022/01/04 04:11:25;;;;;;;;;;;;;;;;;;5097289;28;19916;-72
2022/01/04 04:13:50;;;;;;;;;;;;;;;;;;5097217;28;19923;-71
2022/01/04 04:16:15;;;;;;;;;;;;;;;;;;5096942;28;19916;-72
2022/01/04 04:18:41;;;;;;;;;;;;;;;;;;5097068;28;19916;-72
2022/01/04 04:21:07;;;;;;;;;;;;;;;;;;5096152;28;19916;-72
2022/01/04 04:23:32;;;;;;;;;;;;;;;;;;5096873;28;19920;-72
2022/01/04 04:25:57;;;;;;;;;;;;;;;;;;5096899;28;19943;-72
2022/01/04 04:28:23;;;;;;;;;;;;;;;;;;5095791;28;19920;-72
2022/01/04 04:30:48;;;;;;;;;;;;;;;;;;5096943;28;19916;-72
2022/01/04 04:33:13;;;;;;;;;;;;;;;;;;5096581;28;19966;-72
2022/01/04 04:35:39;;;;;;;;;;;;;;;;;;5096846;28;20357;-72
2022/01/04 04:38:06;;;;;;;;;;;;;;;;;;5095790;28;20003;-72
2022/01/04 04:40:32;;;;;;;;;;;;;;;;;;5096618;28;19922;-72
2022/01/04 04:42:57;;;;;;;;;;;;;;;;;;5096653;28;19920;-72
2022/01/04 04:45:22;;;;;;;;;;;;;;;;;;5096652;28;19959;-72
2022/01/04 04:47:47;;;;;;;;;;;;;;;;;;5096088;28;19927;-72
2022/01/04 04:50:13;;;;;;;;;;;;;;;;;;5096513;28;19920;-72
2022/01/04 04:52:38;;;;;;;;;;;;;;;;;;5096284;28;19923;-72
2022/01/04 04:55:04;;;;;;;;;;;;;;;;;;5095289;28;19950;-72
2022/01/04 04:57:29;;;;;;;;;;;;;;;;;;5096186;28;20296;-72
2022/01/04 04:59:55;;;;;;;;;;;;;;;;;;5097888;28;21739;-72
2022/01/04 05:02:20;;;;;;;;;;;;;;;;;;5116537;28;20012;-72
2022/01/04 05:04:45;;;;;;;;;;;;;;;;;;5116247;28;19927;-72
2022/01/04 05:07:11;;;;;;;;;;;;;;;;;;5116372;28;19915;-72
2022/01/04 05:09:36;;;;;;;;;;;;;;;;;;5116368;28;19916;-72
2022/01/04 05:12:01;;;;;;;;;;;;;;;;;;5116487;28;19984;-72
2022/01/04 05:14:27;;;;;;;;;;;;;;;;;;5101032;28;19916;-72
2022/01/04 05:16:52;;;;;;;;;;;;;;;;;;5095779;28;19923;-72
2022/01/04 05:19:17;;;;;;;;;;;;;;;;;;5095952;28;19916;-72
2022/01/04 05:21:43;;;;;;;;;;;;;;;;;;5096050;28;19973;-73
2022/01/04 05:24:08;;;;;;;;;;;;;;;;;;5095721;28;19920;-72
2022/01/04 05:26:34;;;;;;;;;;;;;;;;;;5095807;28;20389;-72
2022/01/04 05:29:00;;;;;;;;;;;;;;;;;;5095919;28;19916;-72
2022/01/04 05:31:25;;;;;;;;;;;;;;;;;;5095612;28;19951;-72
2022/01/04 05:33:50;;;;;;;;;;;;;;;;;;5094579;28;19963;-72
2022/01/04 05:36:16;;;;;;;;;;;;;;;;;;5095507;28;19916;-71
2022/01/04 05:38:41;;;;;;;;;;;;;;;;;;5094348;28;19923;-72
2022/01/04 05:41:06;;;;;;;;;;;;;;;;;;5096030;28;20006;-72
2022/01/04 05:43:32;;;;;;;;;;;;;;;;;;5095369;28;19927;-72
2022/01/04 05:45:57;;;;;;;;;;;;;;;;;;5095338;28;19922;-72
2022/01/04 05:48:22;;;;;;;;;;;;;;;;;;5095055;28;19920;-72
2022/01/04 05:50:48;;;;;;;;;;;;;;;;;;5094554;28;19920;-72
2022/01/04 05:53:14;;;;;;;;;;;;;;;;;;5095156;28;19923;-72
2022/01/04 05:55:39;;;;;;;;;;;;;;;;;;5095350;28;19916;-72
2022/01/04 05:58:04;;;;;;;;;;;;;;;;;;5095346;28;20011;-72
2022/01/04 06:00:30;;;;;;;;;;;;;;;;;;5095405;28;19916;-72
2022/01/04 06:02:58;;;;;;;;;;;;;;;;;;5094355;28;19920;-72
2022/01/04 06:05:24;;;;;;;;;;;;;;;;;;5095089;28;20301;-72
2022/01/04 06:07:49;;;;;;;;;;;;;;;;;;5094627;28;19916;-72
2022/01/04 06:10:15;;;;;;;;;;;;;;;;;;5094672;28;20318;-72
2022/01/04 06:15:10;;;;;;;;;;;;;;;;;;5094740;28;20314;-72
2022/01/04 06:17:41;;;;;;;;;;;;;;;;;;5094766;28;20346;-72
2022/01/04 06:20:07;;;;;;;;;;;;;;;;;;5094817;28;19959;-72
2022/01/04 06:22:32;;;;;;;;;;;;;;;;;;5094686;28;19920;-72
2022/01/04 06:24:58;;;;;;;;;;;;;;;;;;5094642;28;19916;-71
2022/01/04 06:27:23;;;;;;;;;;;;;;;;;;5093621;28;19924;-71
2022/01/04 06:29:48;;;;;;;;;;;;;;;;;;5093760;28;19920;-72
2022/01/04 06:32:14;;;;;;;;;;;;;;;;;;5094609;28;20305;-72
2022/01/04 06:34:41;;;;;;;;;;;;;;;;;;5093677;28;20354;-71
2022/01/04 06:37:06;;;;;;;;;;;;;;;;;;5094365;28;19923;-71
2022/01/04 06:39:32;;;;;;;;;;;;;;;;;;5094439;28;19912;-71
2022/01/04 06:41:57;;;;;;;;;;;;;;;;;;5094501;28;20007;-71
2022/01/04 06:44:22;;;;;;;;;;;;;;;;;;5094370;28;19926;-72
2022/01/04 06:46:48;;;;;;;;;;;;;;;;;;5093961;28;19966;-71
2022/01/04 06:49:14;;;;;;;;;;;;;;;;;;5094294;28;19920;-72
2022/01/04 06:51:40;;;;;;;;;;;;;;;;;;5094273;28;19923;-72
2022/01/04 06:54:05;;;;;;;;;;;;;;;;;;5092918;28;19916;-72
2022/01/04 06:56:31;;;;;;;;;;;;;;;;;;5094108;28;19960;-72
2022/01/04 06:58:56;;;;;;;;;;;;;;;;;;5092875;28;19916;-72
2022/01/04 07:01:22;;;;;;;;;;;;;;;;;;5092937;28;19916;-72
2022/01/04 07:03:47;;;;;;;;;;;;;;;;;;5093153;28;19981;-72
2022/01/04 07:06:12;;;;;;;;;;;;;;;;;;5093863;28;19920;-72
2022/01/04 07:08:38;;;;;;;;;;;;;;;;;;5094021;28;19955;-72
2022/01/04 07:11:03;;;;;;;;;;;;;;;;;;5093994;28;19924;-72
2022/01/04 07:13:28;;;;;;;;;;;;;;;;;;5093900;28;19916;-72
2022/01/04 07:15:53;;;;;;;;;;;;;;;;;;5094036;28;19920;-72
2022/01/04 07:18:20;;;;;;;;;;;;;;;;;;5093204;28;19916;-72
2022/01/04 07:20:45;;;;;;;;;;;;;;;;;;5093825;28;19912;-72
2022/01/04 07:23:10;;;;;;;;;;;;;;;;;;5093897;28;20270;-71
2022/01/04 07:25:36;;;;;;;;;;;;;;;;;;5093646;28;19916;-72
2022/01/04 07:28:01;;;;;;;;;;;;;;;;;;5093584;28;19920;-72
2022/01/04 07:30:26;;;;;;;;;;;;;;;;;;5093849;28;20337;-72
2022/01/04 07:32:52;;;;;;;;;;;;;;;;;;5092867;28;19961;-72
2022/01/04 07:35:17;;;;;;;;;;;;;;;;;;5093617;28;19961;-72
2022/01/04 07:37:42;;;;;;;;;;;;;;;;;;5093737;28;19934;-71
2022/01/04 07:40:08;;;;;;;;;;;;;;;;;;5093821;28;20446;-71
2022/01/04 07:42:33;;;;;;;;;;;;;;;;;;5093660;28;19926;-72
2022/01/04 07:44:59;;;;;;;;;;;;;;;;;;5093643;28;20421;-72
2022/01/04 07:47:24;;;;;;;;;;;;;;;;;;5093470;28;19967;-72
2022/01/04 07:49:49;;;;;;;;;;;;;;;;;;5093509;28;19920;-72
2022/01/04 07:52:16;;;;;;;;;;;;;;;;;;5093588;28;19935;-72
2022/01/04 07:54:43;;;;;;;;;;;;;;;;;;5092423;28;19973;-72
2022/01/04 07:57:08;;;;;;;;;;;;;;;;;;5092005;28;19920;-72
2022/01/04 07:59:34;;;;;;;;;;;;;;;;;;5092314;28;20007;-72
2022/01/04 08:02:00;;;;;;;;;;;;;;;;;;5091431;28;19924;-72
2022/01/04 08:04:25;;;;;;;;;;;;;;;;;;5093318;28;19920;-72
2022/01/04 08:06:50;;;;;;;;;;;;;;;;;;5093383;28;19923;-72
2022/01/04 08:09:16;;;;;;;;;;;;;;;;;;5093435;28;20014;-73
2022/01/04 08:11:41;;;;;;;;;;;;;;;;;;5093359;28;19999;-72
2022/01/04 08:14:06;;;;;;;;;;;;;;;;;;5093263;28;19991;-73
2022/01/04 08:16:32;;;;;;;;;;;;;;;;;;5093483;28;20399;-73
2022/01/04 08:18:57;;;;;;;;;;;;;;;;;;5093537;28;19916;-73
2022/01/04 08:21:22;;;;;;;;;;;;;;;;;;5093001;28;20035;-73
2022/01/04 08:23:48;;;;;;;;;;;;;;;;;;5093139;28;19920;-72
2022/01/04 08:26:13;;;;;;;;;;;;;;;;;;5093073;28;19927;-73
2022/01/04 08:28:38;;;;;;;;;;;;;;;;;;5091834;28;20281;-73
2022/01/04 08:31:05;;;;;;;;;;;;;;;;;;5095021;28;19920;-73
2022/01/04 08:33:30;;;;;;;;;;;;;;;;;;5096744;28;19919;-73
2022/01/04 08:35:55;;;;;;;;;;;;;;;;;;5095943;28;19916;-73
2022/01/04 08:38:21;;;;;;;;;;;;;;;;;;5096350;28;19916;-73
2022/01/04 08:40:46;;;;;;;;;;;;;;;;;;5096516;28;19916;-73
2022/01/04 08:43:11;;;;;;;;;;;;;;;;;;5096494;28;20020;-73
2022/01/04 08:45:37;;;;;;;;;;;;;;;;;;5096789;28;19916;-73
2022/01/04 08:48:04;;;;;;;;;;;;;;;;;;5096467;28;20365;-73
2022/01/04 08:50:29;;;;;;;;;;;;;;;;;;5096485;28;19916;-73
2022/01/04 08:52:56;;;;;;;;;;;;;;;;;;5096583;28;19922;-74
2022/01/04 08:55:24;;;;;;;;;;;;;;;;;;5096235;28;20416;-73
2022/01/04 08:57:49;;;;;;;;;;;;;;;;;;5096299;28;20385;-74
2022/01/04 09:00:15;;;;;;;;;;;;;;;;;;5096257;28;19916;-75
2022/01/04 09:02:41;;;;;;;;;;;;;;;;;;5096190;28;19920;-76
2022/01/04 09:05:07;;;;;;;;;;;;;;;;;;5095983;28;19924;-74
2022/01/04 09:07:32;;;;;;;;;;;;;;;;;;5095402;28;19998;-73
2022/01/04 09:09:58;;;;;;;;;;;;;;;;;;5094684;28;19962;-76
2022/01/04 09:12:27;;;;;;;;;;;;;;;;;;5096028;28;19982;-75
2022/01/04 09:14:59;;;;;;;;;;;;;;;;;;5095318;28;19916;-75
2022/01/04 09:20:10;;;;;;;;;;;;;;;;;;5094872;28;20010;-74
2022/01/04 09:22:35;;;;;;;;;;;;;;;;;;5094514;28;19977;-75
2022/01/04 09:25:01;;;;;;;;;;;;;;;;;;5094325;28;19920;-75
2022/01/04 09:27:26;;;;;;;;;;;;;;;;;;5095214;28;20362;-73
2022/01/04 09:29:52;;;;;;;;;;;;;;;;;;5095093;28;19916;-75
2022/01/04 09:32:18;;;;;;;;;;;;;;;;;;5095549;28;19916;-75
2022/01/04 09:34:44;;;;;;;;;;;;;;;;;;5093353;28;20049;-76
2022/01/04 09:37:09;;;;;;;;;;;;;;;;;;5086146;28;19953;-76
2022/01/04 09:39:35;;;;;;;;;;;;;;;;;;5094684;28;19916;-75
2022/01/04 09:42:01;;;;;;;;;;;;;;;;;;5093568;28;19922;-76
2022/01/04 09:44:27;;;;;;;;;;;;;;;;;;5094853;28;19920;-76
2022/01/04 09:46:53;;;;;;;;;;;;;;;;;;5094907;28;19957;-76
2022/01/04 09:49:19;;;;;;;;;;;;;;;;;;5096597;28;19916;-78
2022/01/04 09:51:45;;;;;;;;;;;;;;;;;;5096227;28;19916;-77
2022/01/04 09:54:10;;;;;;;;;;;;;;;;;;5095265;28;19915;-75
2022/01/04 09:56:36;;;;;;;;;;;;;;;;;;5094373;28;19916;-74
2022/01/04 09:59:03;;;;;;;;;;;;;;;;;;5093453;28;20352;-73
2022/01/04 10:01:35;;;;;;;;;;;;;;;;;;5094895;28;19916;-72
2022/01/04 10:04:01;;;;;;;;;;;;;;;;;;5094159;28;20258;-72
2022/01/04 10:06:26;;;;;;;;;;;;;;;;;;5093250;28;19916;-72
2022/01/04 10:08:51;;;;;;;;;;;;;;;;;;5093711;28;19916;-72
2022/01/04 10:11:27;;;;;;;;;;;;;;;;;;5094643;28;19916;-72
2022/01/04 10:13:52;;;;;;;;;;;;;;;;;;5094690;28;19935;-73
2022/01/04 10:16:18;;;;;;;;;;;;;;;;;;5093494;28;19920;-73
2022/01/04 10:18:46;;;;;;;;;;;;;;;;;;5093188;28;19920;-73
2022/01/04 10:21:12;;;;;;;;;;;;;;;;;;5094745;28;20374;-73
2022/01/04 10:23:45;;;;;;;;;;;;;;;;;;5093048;28;20300;-73
2022/01/04 10:26:11;;;;;;;;;;;;;;;;;;5094136;28;19961;-73
2022/01/04 10:28:39;;;;;;;;;;;;;;;;;;5093686;28;20006;-73
2022/01/04 10:31:05;;;;;;;;;;;;;;;;;;5094355;28;19927;-72
2022/01/04 10:33:32;;;;;;;;;;;;;;;;;;5094337;28;19916;-74
2022/01/04 10:35:58;;;;;;;;;;;;;;;;;;5092411;28;19999;-75
2022/01/04 10:38:28;;;;;;;;;;;;;;;;;;5094240;28;19920;-74
2022/01/04 10:41:04;;;;;;;;;;;;;;;;;;5094307;28;19920;-75
2022/01/04 10:43:31;;;;;;;;;;;;;;;;;;5094351;28;19924;-75
2022/01/04 10:45:57;;;;;;;;;;;;;;;;;;5094302;28;19916;-74
2022/01/04 10:48:24;;;;;;;;;;;;;;;;;;5093948;28;19965;-75
2022/01/04 10:50:53;;;;;;;;;;;;;;;;;;5094173;28;20003;-75
2022/01/04 10:53:24;;;;;;;;;;;;;;;;;;5093145;28;19920;-73
2022/01/04 10:55:54;;;;;;;;;;;;;;;;;;5094281;28;19945;-74
2022/01/04 10:58:24;;;;;;;;;;;;;;;;;;5093990;28;20285;-74
2022/01/04 11:00:51;;;;;;;;;;;;;;;;;;5093500;28;19939;-73
2022/01/04 11:03:23;;;;;;;;;;;;;;;;;;5093143;28;20018;-74
2022/01/04 11:05:52;;;;;;;;;;;;;;;;;;5093737;28;19964;-72
2022/01/04 11:08:17;;;;;;;;;;;;;;;;;;5093058;28;19926;-72
2022/01/04 11:10:43;;;;;;;;;;;;;;;;;;5092892;28;20040;-73
2022/01/04 11:13:08;;;;;;;;;;;;;;;;;;5093437;28;19998;-73
2022/01/04 11:15:33;;;;;;;;;;;;;;;;;;5093816;28;19941;-74
2022/01/04 11:17:59;;;;;;;;;;;;;;;;;;5093676;28;19923;-73
2022/01/04 11:20:24;;;;;;;;;;;;;;;;;;5093386;28;20388;-73
2022/01/04 11:22:50;;;;;;;;;;;;;;;;;;5093556;28;19916;-74
2022/01/04 11:25:17;;;;;;;;;;;;;;;;;;5093762;28;19923;-74
2022/01/04 11:27:43;;;;;;;;;;;;;;;;;;5093808;28;19966;-73
2022/01/04 11:30:17;;;;;;;;;;;;;;;;;;5093844;28;20398;-72
2022/01/04 11:32:45;;;;;;;;;;;;;;;;;;5093423;28;19939;-72
2022/01/04 11:35:20;;;;;;;;;;;;;;;;;;5092965;28;20322;-72
2022/01/04 11:37:53;;;;;;;;;;;;;;;;;;5093515;28;19920;-72
2022/01/04 11:40:21;;;;;;;;;;;;;;;;;;5093480;28;19969;-72
2022/01/04 11:42:47;;;;;;;;;;;;;;;;;;5092372;28;20330;-71
2022/01/04 11:45:12;;;;;;;;;;;;;;;;;;5093506;28;20005;-71
2022/01/04 11:47:38;;;;;;;;;;;;;;;;;;5093320;28;20041;-72
2022/01/04 11:50:06;;;;;;;;;;;;;;;;;;5093625;28;20074;-72
2022/01/04 11:52:39;;;;;;;;;;;;;;;;;;5093554;28;19923;-72
2022/01/04 11:55:18;;;;;;;;;;;;;;;;;;5093221;28;19920;-72
2022/01/04 11:57:43;;;;;;;;;;;;;;;;;;5093328;28;19935;-72
2022/01/04 12:00:13;;;;;;;;;;;;;;;;;;5093449;28;20277;-72
2022/01/04 12:02:41;;;;;;;;;;;;;;;;;;5091487;28;19961;-72
2022/01/04 12:05:22;;;;;;;;;;;;;;;;;;5094761;28;19920;-73
2022/01/04 12:07:49;;;;;;;;;;;;;;;;;;5097251;28;20381;-72
2022/01/04 12:10:20;;;;;;;;;;;;;;;;;;5097262;28;19920;-72
2022/01/04 12:12:56;;;;;;;;;;;;;;;;;;5097375;28;19938;-71
2022/01/04 12:15:33;;;;;;;;;;;;;;;;;;5096980;28;20374;-72
2022/01/04 12:18:02;;;;;;;;;;;;;;;;;;5097154;28;19916;-72
2022/01/04 12:20:42;;;;;;;;;;;;;;;;;;5097158;28;20377;-72
2022/01/04 12:23:23;;;;;;;;;;;;;;;;;;5096896;28;19920;-72
2022/01/04 12:26:03;;;;;;;;;;;;;;;;;;5096859;28;19920;-72
2022/01/04 12:28:29;;;;;;;;;;;;;;;;;;5097091;28;19916;-72
2022/01/04 12:31:13;;;;;;;;;;;;;;;;;;5096709;28;19952;-72
2022/01/04 12:33:40;;;;;;;;;;;;;;;;;;5096822;28;19916;-72
2022/01/04 12:36:05;;;;;;;;;;;;;;;;;;5095759;28;19912;-72
2022/01/04 12:38:32;;;;;;;;;;;;;;;;;;5096743;28;20006;-72
2022/01/04 12:40:58;;;;;;;;;;;;;;;;;;5096693;28;20377;-72
2022/01/04 12:43:23;;;;;;;;;;;;;;;;;;5095340;28;19924;-72
2022/01/04 12:45:59;;;;;;;;;;;;;;;;;;5096459;28;20234;-72
2022/01/04 12:48:47;;;;;;;;;;;;;;;;;;5096328;28;19975;-72
2022/01/04 12:51:25;;;;;;;;;;;;;;;;;;5096524;28;19916;-71
2022/01/04 12:53:50;;;;;;;;;;;;;;;;;;5096327;28;20436;-71
2022/01/04 12:56:16;;;;;;;;;;;;;;;;;;5096389;28;19962;-71
2022/01/04 12:58:42;;;;;;;;;;;;;;;;;;5096365;28;19951;-71
2022/01/04 13:01:08;;;;;;;;;;;;;;;;;;5096378;28;19961;-71
2022/01/04 13:03:36;;;;;;;;;;;;;;;;;;5094613;28;19927;-71
2022/01/04 13:06:04;;;;;;;;;;;;;;;;;;5096236;28;19916;-71
2022/01/04 13:08:30;;;;;;;;;;;;;;;;;;5096112;28;19923;-71
2022/01/04 13:11:08;;;;;;;;;;;;;;;;;;5095971;28;19920;-71
2022/01/04 13:13:34;;;;;;;;;;;;;;;;;;5095937;28;20292;-71
2022/01/04 13:16:18;;;;;;;;;;;;;;;;;;5095169;28;19916;-71
2022/01/04 13:18:43;;;;;;;;;;;;;;;;;;5096314;28;19923;-72
2022/01/04 13:21:08;;;;;;;;;;;;;;;;;;5096671;28;19916;-72
2022/01/04 13:23:37;;;;;;;;;;;;;;;;;;5094682;28;19962;-72
2022/01/04 13:26:02;;;;;;;;;;;;;;;;;;5095690;28;19984;-72
2022/01/04 13:28:28;;;;;;;;;;;;;;;;;;5094950;28;20445;-72
2022/01/04 13:30:53;;;;;;;;;;;;;;;;;;5095733;28;19920;-72
2022/01/04 13:33:22;;;;;;;;;;;;;;;;;;5095742;28;19923;-72
2022/01/04 13:35:48;;;;;;;;;;;;;;;;;;5094484;28;19916;-73
2022/01/04 13:38:19;;;;;;;;;;;;;;;;;;5094342;28;19923;-72
2022/01/04 13:40:46;;;;;;;;;;;;;;;;;;5095410;28;20358;-73
2022/01/04 13:43:12;;;;;;;;;;;;;;;;;;5095310;28;20378;-72
2022/01/04 13:45:44;;;;;;;;;;;;;;;;;;5095402;28;19923;-72
2022/01/04 13:48:09;;;;;;;;;;;;;;;;;;5093779;28;19926;-72
2022/01/04 13:50:40;;;;;;;;;;;;;;;;;;5095364;28;19999;-75
2022/01/04 13:53:08;;;;;;;;;;;;;;;;;;5077084;28;19920;-73
2022/01/04 13:55:42;;;;;;;;;;;;;;;;;;5095218;28;19920;-74
2022/01/04 13:58:09;;;;;;;;;;;;;;;;;;5092715;28;19916;-73
2022/01/04 14:00:34;;;;;;;;;;;;;;;;;;5094751;28;19920;-72
2022/01/04 14:03:00;;;;;;;;;;;;;;;;;;5094498;28;19927;-72
2022/01/04 14:05:33;;;;;;;;;;;;;;;;;;5094322;28;19916;-72
2022/01/04 14:07:58;;;;;;;;;;;;;;;;;;5094843;28;19920;-72
2022/01/04 14:10:42;;;;;;;;;;;;;;;;;;5094618;28;19928;-72
2022/01/04 14:13:25;;;;;;;;;;;;;;;;;;5094652;28;19916;-71
2022/01/04 14:16:09;;;;;;;;;;;;;;;;;;5094877;28;19923;-71
2022/01/04 14:18:35;;;;;;;;;;;;;;;;;;5094124;28;19966;-70
2022/01/04 14:21:01;;;;;;;;;;;;;;;;;;5094645;28;19969;-70
2022/01/04 14:23:33;;;;;;;;;;;;;;;;;;5094858;28;19920;-69
2022/01/04 14:26:05;;;;;;;;;;;;;;;;;;5094586;28;19916;-71
2022/01/04 14:28:30;;;;;;;;;;;;;;;;;;5093168;28;19924;-70
2022/01/04 14:30:56;;;;;;;;;;;;;;;;;;5094557;28;20367;-71
2022/01/04 14:33:21;;;;;;;;;;;;;;;;;;5094697;28;19916;-71
2022/01/04 14:35:47;;;;;;;;;;;;;;;;;;5094869;28;19958;-70
2022/01/04 14:38:12;;;;;;;;;;;;;;;;;;5093443;28;19920;-70
2022/01/04 14:40:38;;;;;;;;;;;;;;;;;;5093605;28;19948;-71
2022/01/04 14:43:03;;;;;;;;;;;;;;;;;;5094150;28;19974;-70
2022/01/04 14:45:29;;;;;;;;;;;;;;;;;;5094319;28;19916;-71
2022/01/04 14:47:55;;;;;;;;;;;;;;;;;;5094016;28;20010;-69
2022/01/04 14:50:21;;;;;;;;;;;;;;;;;;5093529;28;20011;-69
2022/01/04 14:52:46;;;;;;;;;;;;;;;;;;5094129;28;19923;-70
2022/01/04 14:55:12;;;;;;;;;;;;;;;;;;5093900;28;19916;-69
2022/01/04 14:57:37;;;;;;;;;;;;;;;;;;5094172;28;20033;-69
2022/01/04 15:00:07;;;;;;;;;;;;;;;;;;5093865;28;20434;-69
2022/01/04 15:02:32;;;;;;;;;;;;;;;;;;5093540;28;20357;-69
2022/01/04 15:04:58;;;;;;;;;;;;;;;;;;5094082;28;19982;-70
2022/01/04 15:07:25;;;;;;;;;;;;;;;;;;5093957;28;20297;-69
2022/01/04 15:09:50;;;;;;;;;;;;;;;;;;5093124;28;19942;-69
2022/01/04 15:12:16;;;;;;;;;;;;;;;;;;5093925;28;19916;-69
2022/01/04 15:14:41;;;;;;;;;;;;;;;;;;5093711;28;20376;-69
2022/01/04 15:17:12;;;;;;;;;;;;;;;;;;5093766;28;19976;-70
2022/01/04 15:19:38;;;;;;;;;;;;;;;;;;5093832;28;19939;-69
2022/01/04 15:22:03;;;;;;;;;;;;;;;;;;5093862;28;20365;-71
2022/01/04 15:24:28;;;;;;;;;;;;;;;;;;5093837;28;19924;-72
2022/01/04 15:26:54;;;;;;;;;;;;;;;;;;5093801;28;19970;-71
2022/01/04 15:29:19;;;;;;;;;;;;;;;;;;5093833;28;19962;-73
2022/01/04 15:31:44;;;;;;;;;;;;;;;;;;5092310;28;19923;-72
2022/01/04 15:34:09;;;;;;;;;;;;;;;;;;5093849;28;20371;-72
2022/01/04 15:36:35;;;;;;;;;;;;;;;;;;5093828;28;20366;-71
2022/01/04 15:39:01;;;;;;;;;;;;;;;;;;5093306;28;19916;-71
2022/01/04 15:41:27;;;;;;;;;;;;;;;;;;5097379;28;19970;-73
2022/01/04 15:43:52;;;;;;;;;;;;;;;;;;5097293;28;19924;-72
2022/01/04 15:46:17;;;;;;;;;;;;;;;;;;5096074;28;19963;-72
2022/01/04 15:48:43;;;;;;;;;;;;;;;;;;5097877;28;20344;-72
2022/01/04 15:51:08;;;;;;;;;;;;;;;;;;5097575;28;19916;-71
2022/01/04 15:53:34;;;;;;;;;;;;;;;;;;5097636;28;20346;-71
2022/01/04 15:55:59;;;;;;;;;;;;;;;;;;5097317;28;20003;-70
2022/01/04 15:58:24;;;;;;;;;;;;;;;;;;5095879;28;20423;-71
2022/01/04 16:00:50;;;;;;;;;;;;;;;;;;5097222;28;19923;-70
2022/01/04 16:03:16;;;;;;;;;;;;;;;;;;5096308;28;20014;-71
2022/01/04 16:05:41;;;;;;;;;;;;;;;;;;5097233;28;19916;-71
2022/01/04 16:08:07;;;;;;;;;;;;;;;;;;5097187;28;19927;-71
2022/01/04 16:10:32;;;;;;;;;;;;;;;;;;5097490;28;20354;-71
2022/01/04 16:13:00;;;;;;;;;;;;;;;;;;5096258;28;20327;-71
2022/01/04 16:15:29;;;;;;;;;;;;;;;;;;5097231;28;19984;-71
2022/01/04 16:18:01;;;;;;;;;;;;;;;;;;5095826;28;19920;-71
2022/01/04 16:23:10;;;;;;;;;;;;;;;;;;5096946;28;20030;-71
2022/01/04 16:25:36;;;;;;;;;;;;;;;;;;5095712;28;20029;-71
2022/01/04 16:28:02;;;;;;;;;;;;;;;;;;5096912;28;19916;-71
2022/01/04 16:30:28;;;;;;;;;;;;;;;;;;5096704;28;19920;-70
2022/01/04 16:32:54;;;;;;;;;;;;;;;;;;5096588;28;19916;-70
2022/01/04 16:35:19;;;;;;;;;;;;;;;;;;5096367;28;19916;-69
2022/01/04 16:37:44;;;;;;;;;;;;;;;;;;5096841;28;19916;-70
2022/01/04 16:40:10;;;;;;;;;;;;;;;;;;5095742;28;19923;-71
2022/01/04 16:42:36;;;;;;;;;;;;;;;;;;5096702;28;19916;-71
2022/01/04 16:45:02;;;;;;;;;;;;;;;;;;5095269;28;20340;-70
2022/01/04 16:47:27;;;;;;;;;;;;;;;;;;5096351;28;20324;-70
2022/01/04 16:49:52;;;;;;;;;;;;;;;;;;5096639;28;20370;-69
2022/01/04 16:52:18;;;;;;;;;;;;;;;;;;5096442;28;19929;-70